sensor_id;sensor_type;location;lat;lon;timestamp;temperature;humidity
21778;DHT22;11050;52.222;20.916;2023-06-10T00:01:45;19.40;99.90
21778;DHT22;11050;52.222;20.916;2023-06-10T00:04:14;19.40;99.90
21778;DHT22;11050;52.222;20.916;2023-06-10T00:06:41;19.40;99.90
21778;DHT22;11050;52.222;20.916;2023-06-10T00:09:07;19.40;99.90
21778;DHT22;11050;52.222;20.916;2023-06-10T00:11:40;19.30;99.90
21778;DHT22;11050;52.222;20.916;2023-06-10T00:14:06;19.30;99.90
21778;DHT22;11050;52.222;20.916;2023-06-10T00:16:33;19.30;99.90
21778;DHT22;11050;52.222;20.916;2023-06-10T00:19:03;19.30;99.90
21778;DHT22;11050;52.222;20.916;2023-06-10T00:21:34;19.20;99.90
21778;DHT22;11050;52.222;20.916;2023-06-10T00:24:10;19.20;99.90
21778;DHT22;11050;52.222;20.916;2023-06-10T00:26:38;19.20;99.90
21778;DHT22;11050;52.222;20.916;2023-06-10T00:29:04;19.10;99.90
21778;DHT22;11050;52.222;20.916;2023-06-10T00:31:30;19.10;99.90
21778;DHT22;11050;52.222;20.916;2023-06-10T00:33:56;19.00;99.90
21778;DHT22;11050;52.222;20.916;2023-06-10T00:36:22;18.90;99.90
21778;DHT22;11050;52.222;20.916;2023-06-10T00:38:47;18.90;99.90
21778;DHT22;11050;52.222;20.916;2023-06-10T00:41:14;18.80;99.90
21778;DHT22;11050;52.222;20.916;2023-06-10T00:43:39;18.80;99.90
21778;DHT22;11050;52.222;20.916;2023-06-10T00:46:05;18.70;99.90
21778;DHT22;11050;52.222;20.916;2023-06-10T00:48:32;18.60;99.90
21778;DHT22;11050;52.222;20.916;2023-06-10T00:50:58;18.60;99.90
21778;DHT22;11050;52.222;20.916;2023-06-10T00:53:26;18.50;99.90
21778;DHT22;11050;52.222;20.916;2023-06-10T00:55:53;18.40;99.90
21778;DHT22;11050;52.222;20.916;2023-06-10T00:58:19;18.40;99.90
21778;DHT22;11050;52.222;20.916;2023-06-10T01:00:45;18.30;99.90
21778;DHT22;11050;52.222;20.916;2023-06-10T01:03:10;18.20;99.50
21778;DHT22;11050;52.222;20.916;2023-06-10T01:05:38;18.20;99.10
21778;DHT22;11050;52.222;20.916;2023-06-10T01:08:09;18.10;98.60
21778;DHT22;11050;52.222;20.916;2023-06-10T01:13:17;18.00;97.30
21778;DHT22;11050;52.222;20.916;2023-06-10T01:15:44;17.90;97.10
21778;DHT22;11050;52.222;20.916;2023-06-10T01:18:10;17.90;96.70
21778;DHT22;11050;52.222;20.916;2023-06-10T01:20:40;17.80;96.10
21778;DHT22;11050;52.222;20.916;2023-06-10T01:23:09;17.80;95.60
21778;DHT22;11050;52.222;20.916;2023-06-10T01:26:07;17.70;95.30
21778;DHT22;11050;52.222;20.916;2023-06-10T01:28:49;17.70;95.10
21778;DHT22;11050;52.222;20.916;2023-06-10T01:34:10;17.50;94.80
21778;DHT22;11050;52.222;20.916;2023-06-10T01:36:40;17.50;94.70
21778;DHT22;11050;52.222;20.916;2023-06-10T01:39:10;17.50;94.40
21778;DHT22;11050;52.222;20.916;2023-06-10T01:41:37;17.40;94.10
21778;DHT22;11050;52.222;20.916;2023-06-10T01:44:05;17.40;94.10
21778;DHT22;11050;52.222;20.916;2023-06-10T01:46:30;17.40;94.10
21778;DHT22;11050;52.222;20.916;2023-06-10T01:48:56;17.40;93.90
21778;DHT22;11050;52.222;20.916;2023-06-10T01:51:22;17.30;94.00
21778;DHT22;11050;52.222;20.916;2023-06-10T01:53:47;17.30;93.80
21778;DHT22;11050;52.222;20.916;2023-06-10T01:56:13;17.30;93.90
21778;DHT22;11050;52.222;20.916;2023-06-10T01:58:43;17.20;93.80
21778;DHT22;11050;52.222;20.916;2023-06-10T02:01:10;17.20;93.70
21778;DHT22;11050;52.222;20.916;2023-06-10T02:03:36;17.20;93.80
21778;DHT22;11050;52.222;20.916;2023-06-10T02:06:02;17.10;93.80
21778;DHT22;11050;52.222;20.916;2023-06-10T02:08:28;17.10;93.70
21778;DHT22;11050;52.222;20.916;2023-06-10T02:10:54;17.10;93.70
21778;DHT22;11050;52.222;20.916;2023-06-10T02:13:20;17.10;94.00
21778;DHT22;11050;52.222;20.916;2023-06-10T02:15:45;17.10;94.20
21778;DHT22;11050;52.222;20.916;2023-06-10T02:18:11;17.10;94.30
21778;DHT22;11050;52.222;20.916;2023-06-10T02:20:40;17.00;94.20
21778;DHT22;11050;52.222;20.916;2023-06-10T02:23:06;17.00;94.20
21778;DHT22;11050;52.222;20.916;2023-06-10T02:25:31;17.00;94.20
21778;DHT22;11050;52.222;20.916;2023-06-10T02:27:57;17.00;94.30
21778;DHT22;11050;52.222;20.916;2023-06-10T02:30:23;17.00;94.30
21778;DHT22;11050;52.222;20.916;2023-06-10T02:32:48;16.90;94.40
21778;DHT22;11050;52.222;20.916;2023-06-10T02:35:17;16.90;94.50
21778;DHT22;11050;52.222;20.916;2023-06-10T02:37:43;16.90;94.70
21778;DHT22;11050;52.222;20.916;2023-06-10T02:40:09;16.90;94.70
21778;DHT22;11050;52.222;20.916;2023-06-10T02:42:36;16.90;94.90
21778;DHT22;11050;52.222;20.916;2023-06-10T02:45:02;16.90;95.00
21778;DHT22;11050;52.222;20.916;2023-06-10T02:47:28;16.80;95.20
21778;DHT22;11050;52.222;20.916;2023-06-10T02:49:54;16.90;95.20
21778;DHT22;11050;52.222;20.916;2023-06-10T02:52:20;16.80;95.60
21778;DHT22;11050;52.222;20.916;2023-06-10T02:54:45;16.80;95.40
21778;DHT22;11050;52.222;20.916;2023-06-10T02:57:11;16.80;95.70
21778;DHT22;11050;52.222;20.916;2023-06-10T02:59:37;16.80;95.80
21778;DHT22;11050;52.222;20.916;2023-06-10T03:02:03;16.80;95.80
21778;DHT22;11050;52.222;20.916;2023-06-10T03:04:29;16.80;95.90
21778;DHT22;11050;52.222;20.916;2023-06-10T03:06:56;16.80;95.90
21778;DHT22;11050;52.222;20.916;2023-06-10T03:09:22;16.70;96.10
21778;DHT22;11050;52.222;20.916;2023-06-10T03:11:47;16.80;96.30
21778;DHT22;11050;52.222;20.916;2023-06-10T03:14:13;16.70;96.30
21778;DHT22;11050;52.222;20.916;2023-06-10T03:16:39;16.80;96.50
21778;DHT22;11050;52.222;20.916;2023-06-10T03:19:08;16.80;96.40
21778;DHT22;11050;52.222;20.916;2023-06-10T03:21:36;16.80;96.50
21778;DHT22;11050;52.222;20.916;2023-06-10T03:24:03;16.80;96.70
21778;DHT22;11050;52.222;20.916;2023-06-10T03:26:29;16.80;96.60
21778;DHT22;11050;52.222;20.916;2023-06-10T03:28:55;16.80;96.70
21778;DHT22;11050;52.222;20.916;2023-06-10T03:31:20;16.80;96.80
21778;DHT22;11050;52.222;20.916;2023-06-10T03:33:46;16.90;96.90
21778;DHT22;11050;52.222;20.916;2023-06-10T03:36:12;16.90;97.10
21778;DHT22;11050;52.222;20.916;2023-06-10T03:38:38;16.90;97.20
21778;DHT22;11050;52.222;20.916;2023-06-10T03:41:03;16.90;97.00
21778;DHT22;11050;52.222;20.916;2023-06-10T03:43:29;17.00;97.00
21778;DHT22;11050;52.222;20.916;2023-06-10T03:45:56;17.00;97.20
21778;DHT22;11050;52.222;20.916;2023-06-10T03:48:22;17.00;97.30
21778;DHT22;11050;52.222;20.916;2023-06-10T03:50:47;17.10;97.20
21778;DHT22;11050;52.222;20.916;2023-06-10T03:53:16;17.10;97.10
21778;DHT22;11050;52.222;20.916;2023-06-10T03:55:42;17.20;97.20
21778;DHT22;11050;52.222;20.916;2023-06-10T03:58:08;17.20;97.20
21778;DHT22;11050;52.222;20.916;2023-06-10T04:00:33;17.20;97.10
21778;DHT22;11050;52.222;20.916;2023-06-10T04:03:09;17.30;97.00
21778;DHT22;11050;52.222;20.916;2023-06-10T04:05:39;17.40;96.80
21778;DHT22;11050;52.222;20.916;2023-06-10T04:08:06;17.40;96.90
21778;DHT22;11050;52.222;20.916;2023-06-10T04:10:32;17.50;97.10
21778;DHT22;11050;52.222;20.916;2023-06-10T04:12:58;17.50;96.90
21778;DHT22;11050;52.222;20.916;2023-06-10T04:15:25;17.60;96.90
21778;DHT22;11050;52.222;20.916;2023-06-10T04:17:51;17.60;96.80
21778;DHT22;11050;52.222;20.916;2023-06-10T04:20:16;17.70;97.00
21778;DHT22;11050;52.222;20.916;2023-06-10T04:22:42;17.70;96.90
21778;DHT22;11050;52.222;20.916;2023-06-10T04:25:09;17.70;96.70
21778;DHT22;11050;52.222;20.916;2023-06-10T04:27:35;17.70;96.60
21778;DHT22;11050;52.222;20.916;2023-06-10T04:30:02;17.80;96.70
21778;DHT22;11050;52.222;20.916;2023-06-10T04:32:29;17.80;96.60
21778;DHT22;11050;52.222;20.916;2023-06-10T04:34:55;17.90;96.40
21778;DHT22;11050;52.222;20.916;2023-06-10T04:37:21;17.90;96.40
21778;DHT22;11050;52.222;20.916;2023-06-10T04:39:47;17.90;96.40
21778;DHT22;11050;52.222;20.916;2023-06-10T04:42:12;18.00;96.30
21778;DHT22;11050;52.222;20.916;2023-06-10T04:44:38;18.10;96.10
21778;DHT22;11050;52.222;20.916;2023-06-10T04:47:04;18.10;96.10
21778;DHT22;11050;52.222;20.916;2023-06-10T04:49:30;18.10;95.90
21778;DHT22;11050;52.222;20.916;2023-06-10T04:51:56;18.20;95.90
21778;DHT22;11050;52.222;20.916;2023-06-10T04:54:22;18.20;96.00
21778;DHT22;11050;52.222;20.916;2023-06-10T04:56:47;18.30;95.90
21778;DHT22;11050;52.222;20.916;2023-06-10T04:59:13;18.30;95.70
21778;DHT22;11050;52.222;20.916;2023-06-10T05:01:39;18.40;95.80
21778;DHT22;11050;52.222;20.916;2023-06-10T05:04:05;18.40;95.90
21778;DHT22;11050;52.222;20.916;2023-06-10T05:06:31;18.50;95.60
21778;DHT22;11050;52.222;20.916;2023-06-10T05:08:56;18.50;95.50
21778;DHT22;11050;52.222;20.916;2023-06-10T05:11:22;18.60;95.50
21778;DHT22;11050;52.222;20.916;2023-06-10T05:13:48;18.60;95.40
21778;DHT22;11050;52.222;20.916;2023-06-10T05:16:14;18.70;95.40
21778;DHT22;11050;52.222;20.916;2023-06-10T05:18:40;18.80;95.10
21778;DHT22;11050;52.222;20.916;2023-06-10T05:21:06;18.80;95.10
21778;DHT22;11050;52.222;20.916;2023-06-10T05:23:32;18.80;94.90
21778;DHT22;11050;52.222;20.916;2023-06-10T05:25:58;18.80;94.90
21778;DHT22;11050;52.222;20.916;2023-06-10T05:28:25;18.80;94.80
21778;DHT22;11050;52.222;20.916;2023-06-10T05:30:51;18.90;94.80
21778;DHT22;11050;52.222;20.916;2023-06-10T05:33:17;18.90;94.70
21778;DHT22;11050;52.222;20.916;2023-06-10T05:35:42;18.90;94.70
21778;DHT22;11050;52.222;20.916;2023-06-10T05:38:08;19.00;94.50
21778;DHT22;11050;52.222;20.916;2023-06-10T05:40:33;19.00;94.40
21778;DHT22;11050;52.222;20.916;2023-06-10T05:42:59;19.10;94.40
21778;DHT22;11050;52.222;20.916;2023-06-10T05:45:25;19.10;94.50
21778;DHT22;11050;52.222;20.916;2023-06-10T05:47:52;19.10;94.20
21778;DHT22;11050;52.222;20.916;2023-06-10T05:50:18;19.20;94.40
21778;DHT22;11050;52.222;20.916;2023-06-10T05:52:44;19.20;94.10
21778;DHT22;11050;52.222;20.916;2023-06-10T05:55:10;19.30;93.90
21778;DHT22;11050;52.222;20.916;2023-06-10T05:57:35;19.30;93.90
21778;DHT22;11050;52.222;20.916;2023-06-10T06:00:01;19.40;93.90
21778;DHT22;11050;52.222;20.916;2023-06-10T06:02:27;19.50;93.60
21778;DHT22;11050;52.222;20.916;2023-06-10T06:04:52;19.50;93.20
21778;DHT22;11050;52.222;20.916;2023-06-10T06:07:18;19.70;93.40
21778;DHT22;11050;52.222;20.916;2023-06-10T06:09:46;19.80;93.50
21778;DHT22;11050;52.222;20.916;2023-06-10T06:12:12;19.80;93.30
21778;DHT22;11050;52.222;20.916;2023-06-10T06:14:38;19.90;93.10
21778;DHT22;11050;52.222;20.916;2023-06-10T06:17:07;20.00;92.90
21778;DHT22;11050;52.222;20.916;2023-06-10T06:19:33;20.20;92.60
21778;DHT22;11050;52.222;20.916;2023-06-10T06:21:59;20.30;92.30
21778;DHT22;11050;52.222;20.916;2023-06-10T06:24:25;20.40;92.20
21778;DHT22;11050;52.222;20.916;2023-06-10T06:26:50;20.50;92.40
21778;DHT22;11050;52.222;20.916;2023-06-10T06:29:16;20.50;92.10
21778;DHT22;11050;52.222;20.916;2023-06-10T06:31:42;20.60;91.60
21778;DHT22;11050;52.222;20.916;2023-06-10T06:34:07;20.70;91.80
21778;DHT22;11050;52.222;20.916;2023-06-10T06:36:33;20.80;91.60
21778;DHT22;11050;52.222;20.916;2023-06-10T06:38:59;20.90;91.20
21778;DHT22;11050;52.222;20.916;2023-06-10T06:41:26;20.90;91.00
21778;DHT22;11050;52.222;20.916;2023-06-10T06:43:54;21.00;90.80
21778;DHT22;11050;52.222;20.916;2023-06-10T06:46:20;21.10;90.50
21778;DHT22;11050;52.222;20.916;2023-06-10T06:48:46;21.20;90.20
21778;DHT22;11050;52.222;20.916;2023-06-10T06:51:12;21.30;89.70
21778;DHT22;11050;52.222;20.916;2023-06-10T06:53:39;21.40;89.40
21778;DHT22;11050;52.222;20.916;2023-06-10T06:56:10;21.50;88.90
21778;DHT22;11050;52.222;20.916;2023-06-10T06:58:36;21.60;87.40
21778;DHT22;11050;52.222;20.916;2023-06-10T07:01:02;21.70;87.60
21778;DHT22;11050;52.222;20.916;2023-06-10T07:03:28;21.80;86.60
21778;DHT22;11050;52.222;20.916;2023-06-10T07:05:53;21.80;86.00
21778;DHT22;11050;52.222;20.916;2023-06-10T07:08:19;21.90;85.50
21778;DHT22;11050;52.222;20.916;2023-06-10T07:10:45;22.00;85.50
21778;DHT22;11050;52.222;20.916;2023-06-10T07:13:11;22.00;85.30
21778;DHT22;11050;52.222;20.916;2023-06-10T07:15:38;22.10;85.40
21778;DHT22;11050;52.222;20.916;2023-06-10T07:18:04;22.10;84.20
21778;DHT22;11050;52.222;20.916;2023-06-10T07:20:29;22.20;83.10
21778;DHT22;11050;52.222;20.916;2023-06-10T07:22:55;22.20;83.80
21778;DHT22;11050;52.222;20.916;2023-06-10T07:25:21;22.30;83.80
21778;DHT22;11050;52.222;20.916;2023-06-10T07:27:46;22.40;83.70
21778;DHT22;11050;52.222;20.916;2023-06-10T07:30:13;22.50;84.20
21778;DHT22;11050;52.222;20.916;2023-06-10T07:32:38;22.60;83.00
21778;DHT22;11050;52.222;20.916;2023-06-10T07:35:08;22.70;82.20
21778;DHT22;11050;52.222;20.916;2023-06-10T07:37:38;22.80;80.20
21778;DHT22;11050;52.222;20.916;2023-06-10T07:40:04;22.90;81.90
21778;DHT22;11050;52.222;20.916;2023-06-10T07:42:32;22.90;80.70
21778;DHT22;11050;52.222;20.916;2023-06-10T07:44:59;23.00;79.90
21778;DHT22;11050;52.222;20.916;2023-06-10T07:47:25;23.00;79.10
21778;DHT22;11050;52.222;20.916;2023-06-10T07:49:51;22.90;78.70
21778;DHT22;11050;52.222;20.916;2023-06-10T07:52:17;22.90;78.70
21778;DHT22;11050;52.222;20.916;2023-06-10T07:54:42;22.90;77.20
21778;DHT22;11050;52.222;20.916;2023-06-10T07:57:08;22.90;77.50
21778;DHT22;11050;52.222;20.916;2023-06-10T07:59:34;22.90;76.20
21778;DHT22;11050;52.222;20.916;2023-06-10T08:01:59;22.90;76.60
21778;DHT22;11050;52.222;20.916;2023-06-10T08:04:25;22.90;76.90
21778;DHT22;11050;52.222;20.916;2023-06-10T08:06:51;23.00;78.00
21778;DHT22;11050;52.222;20.916;2023-06-10T08:09:16;23.20;77.10
21778;DHT22;11050;52.222;20.916;2023-06-10T08:11:44;23.40;78.20
21778;DHT22;11050;52.222;20.916;2023-06-10T08:14:11;23.50;76.60
21778;DHT22;11050;52.222;20.916;2023-06-10T08:16:37;23.60;74.70
21778;DHT22;11050;52.222;20.916;2023-06-10T08:19:03;23.70;74.00
21778;DHT22;11050;52.222;20.916;2023-06-10T08:21:28;23.80;74.40
21778;DHT22;11050;52.222;20.916;2023-06-10T08:23:54;23.80;74.00
21778;DHT22;11050;52.222;20.916;2023-06-10T08:26:20;23.90;75.20
21778;DHT22;11050;52.222;20.916;2023-06-10T08:28:45;24.00;73.90
21778;DHT22;11050;52.222;20.916;2023-06-10T08:31:11;24.10;73.00
21778;DHT22;11050;52.222;20.916;2023-06-10T08:33:37;24.20;71.20
21778;DHT22;11050;52.222;20.916;2023-06-10T08:36:02;24.40;71.20
21778;DHT22;11050;52.222;20.916;2023-06-10T08:38:28;24.50;68.20
21778;DHT22;11050;52.222;20.916;2023-06-10T08:40:57;24.60;68.80
21778;DHT22;11050;52.222;20.916;2023-06-10T08:43:29;24.70;69.20
21778;DHT22;11050;52.222;20.916;2023-06-10T08:46:08;24.90;67.20
21778;DHT22;11050;52.222;20.916;2023-06-10T08:48:39;24.90;66.20
21778;DHT22;11050;52.222;20.916;2023-06-10T08:51:10;25.00;64.80
21778;DHT22;11050;52.222;20.916;2023-06-10T08:53:38;25.00;62.80
21778;DHT22;11050;52.222;20.916;2023-06-10T08:56:16;25.00;63.90
21778;DHT22;11050;52.222;20.916;2023-06-10T08:58:43;25.00;64.80
21778;DHT22;11050;52.222;20.916;2023-06-10T09:01:10;25.00;65.00
21778;DHT22;11050;52.222;20.916;2023-06-10T09:03:37;24.90;67.20
21778;DHT22;11050;52.222;20.916;2023-06-10T09:06:05;24.90;66.10
21778;DHT22;11050;52.222;20.916;2023-06-10T09:08:33;24.90;65.60
21778;DHT22;11050;52.222;20.916;2023-06-10T09:11:00;24.90;65.60
21778;DHT22;11050;52.222;20.916;2023-06-10T09:13:26;24.90;65.10
21778;DHT22;11050;52.222;20.916;2023-06-10T09:15:52;25.00;64.40
21778;DHT22;11050;52.222;20.916;2023-06-10T09:18:17;25.00;63.80
21778;DHT22;11050;52.222;20.916;2023-06-10T09:20:43;25.00;64.20
21778;DHT22;11050;52.222;20.916;2023-06-10T09:23:10;25.10;64.50
21778;DHT22;11050;52.222;20.916;2023-06-10T09:25:37;25.10;64.50
21778;DHT22;11050;52.222;20.916;2023-06-10T09:28:05;25.20;63.00
21778;DHT22;11050;52.222;20.916;2023-06-10T09:30:38;25.20;62.20
21778;DHT22;11050;52.222;20.916;2023-06-10T09:33:10;25.20;62.00
21778;DHT22;11050;52.222;20.916;2023-06-10T09:35:45;25.30;61.40
21778;DHT22;11050;52.222;20.916;2023-06-10T09:38:13;25.30;60.80
21778;DHT22;11050;52.222;20.916;2023-06-10T09:40:51;25.40;60.20
21778;DHT22;11050;52.222;20.916;2023-06-10T09:43:18;25.50;60.00
21778;DHT22;11050;52.222;20.916;2023-06-10T09:45:47;25.50;59.60
21778;DHT22;11050;52.222;20.916;2023-06-10T09:48:18;25.50;57.00
21778;DHT22;11050;52.222;20.916;2023-06-10T09:50:45;25.50;56.10
21778;DHT22;11050;52.222;20.916;2023-06-10T09:53:11;25.30;56.50
21778;DHT22;11050;52.222;20.916;2023-06-10T09:55:41;25.30;56.60
21778;DHT22;11050;52.222;20.916;2023-06-10T09:58:07;25.40;56.70
21778;DHT22;11050;52.222;20.916;2023-06-10T10:00:33;25.40;55.10
21778;DHT22;11050;52.222;20.916;2023-06-10T10:02:59;25.50;55.30
21778;DHT22;11050;52.222;20.916;2023-06-10T10:05:26;25.60;54.40
21778;DHT22;11050;52.222;20.916;2023-06-10T10:07:52;25.70;54.30
21778;DHT22;11050;52.222;20.916;2023-06-10T10:10:20;25.80;53.20
21778;DHT22;11050;52.222;20.916;2023-06-10T10:12:47;25.90;51.40
21778;DHT22;11050;52.222;20.916;2023-06-10T10:15:17;26.10;48.70
21778;DHT22;11050;52.222;20.916;2023-06-10T10:18:05;26.30;45.30
21778;DHT22;11050;52.222;20.916;2023-06-10T10:20:34;26.40;43.20
21778;DHT22;11050;52.222;20.916;2023-06-10T10:23:04;26.40;41.30
21778;DHT22;11050;52.222;20.916;2023-06-10T10:25:40;26.40;42.70
21778;DHT22;11050;52.222;20.916;2023-06-10T10:28:12;26.50;43.60
21778;DHT22;11050;52.222;20.916;2023-06-10T10:30:49;26.60;43.30
21778;DHT22;11050;52.222;20.916;2023-06-10T10:33:28;26.70;44.00
21778;DHT22;11050;52.222;20.916;2023-06-10T10:35:58;26.80;44.50
21778;DHT22;11050;52.222;20.916;2023-06-10T10:38:25;26.90;45.40
21778;DHT22;11050;52.222;20.916;2023-06-10T10:40:51;27.00;45.50
21778;DHT22;11050;52.222;20.916;2023-06-10T10:43:18;27.10;44.80
21778;DHT22;11050;52.222;20.916;2023-06-10T10:46:01;27.10;45.50
21778;DHT22;11050;52.222;20.916;2023-06-10T10:48:37;27.10;43.20
21778;DHT22;11050;52.222;20.916;2023-06-10T10:51:05;27.30;43.80
21778;DHT22;11050;52.222;20.916;2023-06-10T10:53:30;27.50;43.40
21778;DHT22;11050;52.222;20.916;2023-06-10T10:56:15;27.70;42.30
21778;DHT22;11050;52.222;20.916;2023-06-10T10:59:04;28.00;41.30
21778;DHT22;11050;52.222;20.916;2023-06-10T11:01:41;28.30;41.30
21778;DHT22;11050;52.222;20.916;2023-06-10T11:04:11;28.50;40.30
21778;DHT22;11050;52.222;20.916;2023-06-10T11:06:38;28.80;41.70
21778;DHT22;11050;52.222;20.916;2023-06-10T11:09:25;29.20;40.70
21778;DHT22;11050;52.222;20.916;2023-06-10T11:11:59;29.50;39.70
21778;DHT22;11050;52.222;20.916;2023-06-10T11:14:29;29.70;38.10
21778;DHT22;11050;52.222;20.916;2023-06-10T11:16:58;29.90;38.30
21778;DHT22;11050;52.222;20.916;2023-06-10T11:19:39;30.00;38.10
21778;DHT22;11050;52.222;20.916;2023-06-10T11:22:07;30.10;38.30
21778;DHT22;11050;52.222;20.916;2023-06-10T11:24:33;30.30;37.40
21778;DHT22;11050;52.222;20.916;2023-06-10T11:27:19;30.40;37.20
21778;DHT22;11050;52.222;20.916;2023-06-10T11:30:19;30.60;37.40
21778;DHT22;11050;52.222;20.916;2023-06-10T11:32:45;30.70;36.10
21778;DHT22;11050;52.222;20.916;2023-06-10T11:35:20;30.90;37.20
21778;DHT22;11050;52.222;20.916;2023-06-10T11:37:49;31.10;36.50
21778;DHT22;11050;52.222;20.916;2023-06-10T11:40:15;31.30;36.20
21778;DHT22;11050;52.222;20.916;2023-06-10T11:42:42;31.60;36.50
21778;DHT22;11050;52.222;20.916;2023-06-10T11:45:08;31.90;35.90
21778;DHT22;11050;52.222;20.916;2023-06-10T11:47:34;32.10;34.00
21778;DHT22;11050;52.222;20.916;2023-06-10T11:50:00;32.30;34.90
21778;DHT22;11050;52.222;20.916;2023-06-10T11:52:30;32.40;32.80
21778;DHT22;11050;52.222;20.916;2023-06-10T11:54:59;32.40;32.90
21778;DHT22;11050;52.222;20.916;2023-06-10T11:57:24;32.60;32.30
21778;DHT22;11050;52.222;20.916;2023-06-10T11:59:50;32.80;32.30
21778;DHT22;11050;52.222;20.916;2023-06-10T12:02:17;33.00;33.10
21778;DHT22;11050;52.222;20.916;2023-06-10T12:04:44;33.30;32.60
21778;DHT22;11050;52.222;20.916;2023-06-10T12:07:20;33.50;32.20
21778;DHT22;11050;52.222;20.916;2023-06-10T12:09:46;33.70;31.50
21778;DHT22;11050;52.222;20.916;2023-06-10T12:12:12;33.80;31.80
21778;DHT22;11050;52.222;20.916;2023-06-10T12:14:56;34.00;32.20
21778;DHT22;11050;52.222;20.916;2023-06-10T12:20:02;34.30;30.50
21778;DHT22;11050;52.222;20.916;2023-06-10T12:22:41;34.40;29.90
21778;DHT22;11050;52.222;20.916;2023-06-10T12:25:09;34.50;29.20
21778;DHT22;11050;52.222;20.916;2023-06-10T12:27:36;34.60;29.50
21778;DHT22;11050;52.222;20.916;2023-06-10T12:30:04;34.70;28.50
21778;DHT22;11050;52.222;20.916;2023-06-10T12:32:44;34.70;28.40
21778;DHT22;11050;52.222;20.916;2023-06-10T12:35:13;34.80;28.50
21778;DHT22;11050;52.222;20.916;2023-06-10T12:37:42;34.80;29.80
21778;DHT22;11050;52.222;20.916;2023-06-10T12:40:08;34.90;30.90
21778;DHT22;11050;52.222;20.916;2023-06-10T12:42:36;35.00;31.30
21778;DHT22;11050;52.222;20.916;2023-06-10T12:45:03;35.10;30.10
21778;DHT22;11050;52.222;20.916;2023-06-10T12:47:36;35.20;30.80
21778;DHT22;11050;52.222;20.916;2023-06-10T12:50:07;35.00;30.40
21778;DHT22;11050;52.222;20.916;2023-06-10T12:52:33;34.60;31.40
21778;DHT22;11050;52.222;20.916;2023-06-10T12:54:59;34.00;31.30
21778;DHT22;11050;52.222;20.916;2023-06-10T12:57:25;33.70;31.70
21778;DHT22;11050;52.222;20.916;2023-06-10T12:59:51;33.60;33.60
21778;DHT22;11050;52.222;20.916;2023-06-10T13:02:25;33.70;33.90
21778;DHT22;11050;52.222;20.916;2023-06-10T13:04:51;33.70;33.20
21778;DHT22;11050;52.222;20.916;2023-06-10T13:07:17;33.90;34.40
21778;DHT22;11050;52.222;20.916;2023-06-10T13:09:43;34.10;32.60
21778;DHT22;11050;52.222;20.916;2023-06-10T13:12:09;34.40;31.00
21778;DHT22;11050;52.222;20.916;2023-06-10T13:14:36;34.60;32.70
21778;DHT22;11050;52.222;20.916;2023-06-10T13:17:03;34.80;30.90
21778;DHT22;11050;52.222;20.916;2023-06-10T13:19:34;35.10;30.70
21778;DHT22;11050;52.222;20.916;2023-06-10T13:22:00;35.20;31.30
21778;DHT22;11050;52.222;20.916;2023-06-10T13:24:26;35.10;30.70
21778;DHT22;11050;52.222;20.916;2023-06-10T13:26:52;34.70;31.60
21778;DHT22;11050;52.222;20.916;2023-06-10T13:29:18;34.70;32.40
21778;DHT22;11050;52.222;20.916;2023-06-10T13:31:43;34.80;32.60
21778;DHT22;11050;52.222;20.916;2023-06-10T13:34:09;35.10;31.70
21778;DHT22;11050;52.222;20.916;2023-06-10T13:36:36;35.40;31.00
21778;DHT22;11050;52.222;20.916;2023-06-10T13:39:01;35.70;30.00
21778;DHT22;11050;52.222;20.916;2023-06-10T13:41:27;35.70;28.80
21778;DHT22;11050;52.222;20.916;2023-06-10T13:43:55;35.40;29.20
21778;DHT22;11050;52.222;20.916;2023-06-10T13:46:21;35.40;30.00
21778;DHT22;11050;52.222;20.916;2023-06-10T13:48:47;35.60;30.30
21778;DHT22;11050;52.222;20.916;2023-06-10T13:51:13;35.70;30.00
21778;DHT22;11050;52.222;20.916;2023-06-10T13:53:39;35.90;29.70
21778;DHT22;11050;52.222;20.916;2023-06-10T13:56:05;36.20;29.80
21778;DHT22;11050;52.222;20.916;2023-06-10T13:58:30;36.40;29.80
21778;DHT22;11050;52.222;20.916;2023-06-10T14:00:56;36.40;29.80
21778;DHT22;11050;52.222;20.916;2023-06-10T14:03:23;36.40;29.40
21778;DHT22;11050;52.222;20.916;2023-06-10T14:05:50;36.40;28.30
21778;DHT22;11050;52.222;20.916;2023-06-10T14:08:15;36.40;27.60
21778;DHT22;11050;52.222;20.916;2023-06-10T14:10:42;36.60;27.50
21778;DHT22;11050;52.222;20.916;2023-06-10T14:13:07;36.70;27.50
21778;DHT22;11050;52.222;20.916;2023-06-10T14:15:33;37.00;27.70
21778;DHT22;11050;52.222;20.916;2023-06-10T14:17:59;37.20;28.00
21778;DHT22;11050;52.222;20.916;2023-06-10T14:20:24;37.00;28.60
21778;DHT22;11050;52.222;20.916;2023-06-10T14:22:52;37.00;28.90
21778;DHT22;11050;52.222;20.916;2023-06-10T14:25:23;36.80;28.50
21778;DHT22;11050;52.222;20.916;2023-06-10T14:27:49;36.50;28.50
21778;DHT22;11050;52.222;20.916;2023-06-10T14:30:15;35.80;28.90
21778;DHT22;11050;52.222;20.916;2023-06-10T14:32:41;35.20;28.80
21778;DHT22;11050;52.222;20.916;2023-06-10T14:35:07;34.70;30.00
21778;DHT22;11050;52.222;20.916;2023-06-10T14:37:33;34.40;30.40
21778;DHT22;11050;52.222;20.916;2023-06-10T14:39:58;34.30;31.00
21778;DHT22;11050;52.222;20.916;2023-06-10T14:42:24;34.20;31.80
21778;DHT22;11050;52.222;20.916;2023-06-10T14:44:50;34.00;31.90
21778;DHT22;11050;52.222;20.916;2023-06-10T14:47:17;34.00;32.00
21778;DHT22;11050;52.222;20.916;2023-06-10T14:49:43;34.20;32.80
21778;DHT22;11050;52.222;20.916;2023-06-10T14:52:09;34.50;32.50
21778;DHT22;11050;52.222;20.916;2023-06-10T14:54:35;35.00;31.50
21778;DHT22;11050;52.222;20.916;2023-06-10T14:57:01;35.40;30.70
21778;DHT22;11050;52.222;20.916;2023-06-10T14:59:26;35.70;30.90
21778;DHT22;11050;52.222;20.916;2023-06-10T15:01:52;36.00;30.00
21778;DHT22;11050;52.222;20.916;2023-06-10T15:04:18;36.10;30.00
21778;DHT22;11050;52.222;20.916;2023-06-10T15:06:43;36.10;30.00
21778;DHT22;11050;52.222;20.916;2023-06-10T15:09:09;36.10;30.30
21778;DHT22;11050;52.222;20.916;2023-06-10T15:11:35;36.10;30.80
21778;DHT22;11050;52.222;20.916;2023-06-10T15:14:01;36.20;30.30
21778;DHT22;11050;52.222;20.916;2023-06-10T15:16:27;36.10;30.00
21778;DHT22;11050;52.222;20.916;2023-06-10T15:18:52;36.10;29.80
21778;DHT22;11050;52.222;20.916;2023-06-10T15:21:18;36.20;29.70
21778;DHT22;11050;52.222;20.916;2023-06-10T15:23:44;36.40;30.00
21778;DHT22;11050;52.222;20.916;2023-06-10T15:26:09;36.50;29.90